createdAt,value
2019-02-07T00:01:24.474Z,85.48
2019-02-07T00:04:39.683Z,85.44
2019-02-07T00:07:55.466Z,85.37
2019-02-07T00:11:10.699Z,85.13
2019-02-07T00:14:25.722Z,85.58
2019-02-07T00:17:41.194Z,86.71
2019-02-07T00:20:56.754Z,86.69
2019-02-07T00:24:12.147Z,86.14
2019-02-07T00:27:45.870Z,85.97
2019-02-07T00:31:01.235Z,85.83
2019-02-07T00:34:16.694Z,85.68
2019-02-07T00:41:06.721Z,85.81
2019-02-07T00:44:22.290Z,85.56
2019-02-07T00:47:38.258Z,85.44
2019-02-07T00:50:53.579Z,85.71
2019-02-07T00:54:09.270Z,85.86
2019-02-07T00:57:24.831Z,85.85
2019-02-07T01:00:40.579Z,85.86
2019-02-07T01:03:56.035Z,85.83
2019-02-07T01:07:11.594Z,85.71
2019-02-07T01:10:26.963Z,85.71
2019-02-07T01:13:42.403Z,85.61
2019-02-07T01:16:57.595Z,85.91
2019-02-07T01:20:13.434Z,85.97
2019-02-07T01:23:28.679Z,85.88
2019-02-07T01:26:44.224Z,85.85
2019-02-07T01:29:59.467Z,85.71
2019-02-07T01:33:15.401Z,85.55
2019-02-07T01:36:31.623Z,85.43
2019-02-07T01:39:47.370Z,85.40
2019-02-07T01:43:03.425Z,85.21
2019-02-07T01:46:18.807Z,85.36
2019-02-07T01:49:34.251Z,85.08
2019-02-07T01:52:49.920Z,85.31
2019-02-07T01:56:05.050Z,85.60
2019-02-07T01:59:20.921Z,85.74
2019-02-07T02:02:36.052Z,85.81
2019-02-07T02:05:51.331Z,85.79
2019-02-07T02:09:06.662Z,85.64
2019-02-07T02:12:22.446Z,85.48
2019-02-07T02:15:37.906Z,85.69
2019-02-07T02:18:53.756Z,85.78
2019-02-07T02:22:09.098Z,85.55
2019-02-07T02:25:24.779Z,85.58
2019-02-07T02:28:39.917Z,85.66
2019-02-07T02:31:55.263Z,85.75
2019-02-07T02:35:10.411Z,85.65
2019-02-07T02:38:26.532Z,85.55
2019-02-07T02:41:41.852Z,86.08
2019-02-07T02:44:57.499Z,86.46
2019-02-07T02:48:12.639Z,86.18
2019-02-07T02:51:27.807Z,86.40
2019-02-07T02:54:46.334Z,86.63
2019-02-07T02:58:02.300Z,86.32
2019-02-07T03:01:44.384Z,86.04
2019-02-07T03:05:13.124Z,85.81
2019-02-07T03:08:44.763Z,85.57
2019-02-07T03:12:17.819Z,86.31
2019-02-07T03:15:59.112Z,87.32
2019-02-07T03:19:27.880Z,87.12
2019-02-07T03:23:09.887Z,86.58
2019-02-07T03:26:40.890Z,86.29
2019-02-07T03:30:23.168Z,86.12
2019-02-07T03:34:02.126Z,86.01
2019-02-07T03:37:44.117Z,85.95
2019-02-07T03:41:29.435Z,86.28
2019-02-07T03:45:08.529Z,86.26
2019-02-07T03:48:56.957Z,86.68
2019-02-07T03:52:27.136Z,86.48
2019-02-07T03:56:03.169Z,86.23
2019-02-07T03:59:54.977Z,86.08
2019-02-07T04:03:25.952Z,86.13
2019-02-07T04:06:57.836Z,86.77
2019-02-07T04:10:29.000Z,86.83
2019-02-07T04:14:02.217Z,86.52
2019-02-07T04:17:47.167Z,86.31
2019-02-07T04:21:19.088Z,86.36
2019-02-07T04:25:08.341Z,86.44
2019-02-07T04:28:42.829Z,85.90
2019-02-07T04:32:16.918Z,86.08
2019-02-07T04:35:55.084Z,86.37
2019-02-07T04:39:17.679Z,86.11
2019-02-07T04:43:09.426Z,86.50
2019-02-07T04:46:49.591Z,86.32
2019-02-07T04:50:33.618Z,86.40
2019-02-07T04:54:07.974Z,86.04
2019-02-07T04:57:40.319Z,86.80
2019-02-07T05:01:25.470Z,86.66
2019-02-07T05:05:07.919Z,86.43
2019-02-07T05:08:31.604Z,86.40
2019-02-07T05:12:10.982Z,86.64
2019-02-07T05:15:57.151Z,87.05
2019-02-07T05:19:29.373Z,87.61
2019-02-07T05:23:05.301Z,87.78
2019-02-07T05:26:53.597Z,87.24
2019-02-07T05:30:32.676Z,87.09
2019-02-07T05:34:12.154Z,87.23
2019-02-07T05:37:45.145Z,86.77
2019-02-07T05:41:13.089Z,86.72
2019-02-07T05:44:40.540Z,86.87
2019-02-07T05:48:15.418Z,86.76
2019-02-07T05:51:47.877Z,86.68
2019-02-07T05:55:14.880Z,86.28
2019-02-07T05:58:42.504Z,87.60
2019-02-07T06:02:30.857Z,88.07
2019-02-07T06:06:02.946Z,88.65
2019-02-07T06:09:27.915Z,88.38
2019-02-07T06:13:06.181Z,88.59
2019-02-07T06:16:48.261Z,88.22
2019-02-07T06:20:31.126Z,88.16
2019-02-07T06:24:01.822Z,87.91
2019-02-07T06:27:32.759Z,87.51
2019-02-07T06:31:07.310Z,87.21
2019-02-07T06:34:39.776Z,87.32
2019-02-07T06:38:12.239Z,87.07
2019-02-07T06:41:46.592Z,86.74
2019-02-07T06:45:32.030Z,86.82
2019-02-07T06:49:13.811Z,86.72
2019-02-07T06:52:38.881Z,86.30
2019-02-07T06:56:27.189Z,85.08
2019-02-07T06:59:58.780Z,85.56
2019-02-07T07:03:28.694Z,86.12
2019-02-07T07:07:09.219Z,86.45
2019-02-07T07:10:54.623Z,87.20
2019-02-07T07:14:22.091Z,87.63
2019-02-07T07:17:55.267Z,87.25
2019-02-07T07:21:27.204Z,87.39
2019-02-07T07:25:15.392Z,87.67
2019-02-07T07:28:45.977Z,87.95
2019-02-07T07:32:22.309Z,87.97
2019-02-07T07:35:58.519Z,87.99
2019-02-07T07:39:30.446Z,87.73
2019-02-07T07:43:04.155Z,87.29
2019-02-07T07:46:36.412Z,87.13
2019-02-07T07:50:02.996Z,86.60
2019-02-07T07:53:45.165Z,87.10
2019-02-07T07:57:17.909Z,87.20
2019-02-07T08:01:03.315Z,87.77
2019-02-07T08:04:49.337Z,88.23
2019-02-07T08:08:13.620Z,89.72
2019-02-07T08:11:48.403Z,89.08
2019-02-07T08:15:22.472Z,89.11
2019-02-07T08:18:52.780Z,89.41
2019-02-07T08:22:41.332Z,89.55
2019-02-07T08:26:10.903Z,90.30
2019-02-07T08:29:46.902Z,90.34
2019-02-07T08:33:33.784Z,91.66
2019-02-07T08:37:06.044Z,92.10
2019-02-07T08:40:30.701Z,91.96
2019-02-07T08:44:07.016Z,91.25
2019-02-07T08:47:40.145Z,89.73
2019-02-07T08:51:11.266Z,89.46
2019-02-07T08:54:43.428Z,89.17
2019-02-07T08:58:17.857Z,89.99
2019-02-07T09:02:03.614Z,89.61
2019-02-07T09:05:39.979Z,89.26
2019-02-07T09:09:12.064Z,88.79
2019-02-07T09:12:55.202Z,88.16
2019-02-07T09:16:35.501Z,88.73
2019-02-07T09:20:16.642Z,88.66
2019-02-07T09:24:00.000Z,88.30
2019-02-07T09:27:42.014Z,88.45
2019-02-07T09:31:27.598Z,88.96
2019-02-07T09:35:18.556Z,89.11
2019-02-07T09:38:47.216Z,88.55
2019-02-07T09:42:24.566Z,87.59
2019-02-07T09:45:56.785Z,88.77
2019-02-07T09:49:24.526Z,88.43
2019-02-07T09:52:47.973Z,88.70
2019-02-07T09:56:11.521Z,88.33
2019-02-07T09:59:45.062Z,88.31
2019-02-07T10:03:08.007Z,88.21
2019-02-07T10:06:35.667Z,88.26
2019-02-07T10:10:15.122Z,88.48
2019-02-07T10:13:49.833Z,88.34
2019-02-07T10:17:29.497Z,87.63
2019-02-07T10:21:02.715Z,87.73
2019-02-07T10:24:28.271Z,87.33
2019-02-07T10:27:57.258Z,87.70
2019-02-07T10:31:22.437Z,87.00
2019-02-07T10:34:54.347Z,86.06
2019-02-07T10:38:26.574Z,86.01
2019-02-07T10:42:01.471Z,86.34
2019-02-07T10:45:33.517Z,86.83
2019-02-07T10:49:08.047Z,86.42
2019-02-07T10:52:44.764Z,86.38
2019-02-07T10:56:25.722Z,87.09
2019-02-07T10:59:57.564Z,87.02
2019-02-07T11:03:42.665Z,87.29
2019-02-07T11:07:21.594Z,87.57
2019-02-07T11:10:51.122Z,86.77
2019-02-07T11:14:33.292Z,87.02
2019-02-07T11:18:05.328Z,87.45
2019-02-07T11:21:32.039Z,87.01
2019-02-07T11:25:13.168Z,87.03
2019-02-07T11:28:41.548Z,86.82
2019-02-07T11:32:16.105Z,86.95
2019-02-07T11:40:15.943Z,85.53
2019-02-07T11:43:47.380Z,87.00
2019-02-07T11:47:29.824Z,86.84
2019-02-07T11:50:55.652Z,87.89
2019-02-07T11:54:28.595Z,86.08
2019-02-07T11:57:58.352Z,86.71
2019-02-07T12:01:30.799Z,86.51
2019-02-07T12:05:05.495Z,87.07
2019-02-07T12:08:54.169Z,88.06
2019-02-07T12:12:28.329Z,87.61
2019-02-07T12:16:13.500Z,87.78
2019-02-07T12:19:52.918Z,87.39
2019-02-07T12:23:27.010Z,86.08
2019-02-07T12:27:01.844Z,86.61
2019-02-07T12:30:47.543Z,86.91
2019-02-07T12:34:13.733Z,87.09
2019-02-07T12:37:36.642Z,85.96
2019-02-07T12:41:22.667Z,86.29
2019-02-07T12:44:56.293Z,85.32
2019-02-07T12:48:41.677Z,85.66
2019-02-07T12:52:12.716Z,84.96
2019-02-07T12:55:52.345Z,85.12
2019-02-07T12:59:30.389Z,85.07
2019-02-07T13:03:06.135Z,83.96
2019-02-07T13:06:45.288Z,82.55
2019-02-07T13:10:21.229Z,83.05
2019-02-07T13:13:56.846Z,83.11
2019-02-07T13:17:24.719Z,83.69
2019-02-07T13:20:49.367Z,83.65
2019-02-07T13:24:26.182Z,83.83
2019-02-07T13:28:09.380Z,83.60
2019-02-07T13:31:54.587Z,82.19
2019-02-07T13:35:34.161Z,80.55
2019-02-07T13:39:07.095Z,80.22
2019-02-07T13:42:39.401Z,79.68
2019-02-07T13:46:15.354Z,80.19
2019-02-07T13:49:57.373Z,80.58
2019-02-07T13:53:49.056Z,79.70
2019-02-07T13:57:22.121Z,79.15
2019-02-07T14:00:56.950Z,77.85
2019-02-07T14:04:28.894Z,77.04
2019-02-07T14:07:58.148Z,76.23
2019-02-07T14:11:32.691Z,76.04
2019-02-07T14:15:07.491Z,76.49
2019-02-07T14:18:46.812Z,78.06
2019-02-07T14:22:21.298Z,78.40
2019-02-07T14:26:06.476Z,77.77
2019-02-07T14:29:41.117Z,78.03
2019-02-07T14:33:07.039Z,78.16
2019-02-07T14:36:38.654Z,77.83
2019-02-07T14:40:14.795Z,78.20
2019-02-07T14:43:38.196Z,78.38
2019-02-07T14:46:53.585Z,78.07
2019-02-07T14:50:14.951Z,78.40
2019-02-07T14:53:27.027Z,78.37
2019-02-07T14:56:42.697Z,77.77
2019-02-07T14:59:58.050Z,78.16
2019-02-07T15:03:13.615Z,78.62
2019-02-07T15:06:29.377Z,78.78
2019-02-07T15:09:44.629Z,78.15
2019-02-07T15:13:01.303Z,78.21
2019-02-07T15:16:16.668Z,78.15
2019-02-07T15:19:32.111Z,77.70
2019-02-07T15:22:47.351Z,77.99
2019-02-07T15:26:03.228Z,77.93
2019-02-07T15:29:18.559Z,78.52
2019-02-07T15:32:34.041Z,78.68
2019-02-07T15:35:49.590Z,78.59
2019-02-07T15:39:07.158Z,79.09
2019-02-07T15:42:22.688Z,79.18
2019-02-07T15:45:38.826Z,79.11
2019-02-07T15:48:54.316Z,79.09
2019-02-07T15:52:09.635Z,79.61
2019-02-07T15:55:25.009Z,80.25
2019-02-07T15:58:57.730Z,79.99
2019-02-07T16:02:40.011Z,80.52
2019-02-07T16:05:55.503Z,80.60
2019-02-07T16:09:12.292Z,80.73
2019-02-07T16:12:27.399Z,81.38
2019-02-07T16:15:42.955Z,81.22
2019-02-07T16:18:58.619Z,81.75
2019-02-07T16:22:14.236Z,81.92
2019-02-07T16:25:29.823Z,81.95
2019-02-07T16:28:45.066Z,82.50
2019-02-07T16:32:00.784Z,82.42
2019-02-07T16:35:15.646Z,82.14
2019-02-07T16:38:31.956Z,82.74
2019-02-07T16:41:47.846Z,82.35
2019-02-07T16:45:03.488Z,82.14
2019-02-07T16:48:19.036Z,82.11
2019-02-07T16:51:34.589Z,83.20
2019-02-07T16:54:49.985Z,83.27
2019-02-07T16:58:05.726Z,83.00
2019-02-07T17:01:21.477Z,84.24
2019-02-07T17:04:36.730Z,84.55
2019-02-07T17:07:51.854Z,84.64
2019-02-07T17:11:07.009Z,86.77
2019-02-07T17:14:22.179Z,86.74
2019-02-07T17:17:37.411Z,86.01
2019-02-07T17:20:52.351Z,86.44
2019-02-07T17:24:07.930Z,86.48
2019-02-07T17:27:23.283Z,86.65
2019-02-07T17:30:42.744Z,86.75
2019-02-07T17:33:57.984Z,86.46
2019-02-07T17:37:13.545Z,86.55
2019-02-07T17:40:29.009Z,86.81
2019-02-07T17:43:44.450Z,87.05
2019-02-07T17:46:59.602Z,87.56
2019-02-07T17:50:18.262Z,88.02
2019-02-07T17:53:33.885Z,88.17
2019-02-07T17:56:49.360Z,87.60
2019-02-07T18:00:10.415Z,87.47
2019-02-07T18:03:25.663Z,86.77
2019-02-07T18:06:41.443Z,87.32
2019-02-07T18:09:56.692Z,86.81
2019-02-07T18:13:12.240Z,86.32
2019-02-07T18:16:27.632Z,86.02
2019-02-07T18:19:42.821Z,85.33
2019-02-07T18:22:58.408Z,86.45
2019-02-07T18:26:13.968Z,86.12
2019-02-07T18:29:29.331Z,86.05
2019-02-07T18:32:44.939Z,86.60
2019-02-07T18:36:00.539Z,87.01
2019-02-07T18:39:16.203Z,87.29
2019-02-07T18:42:31.594Z,87.68
2019-02-07T18:45:47.241Z,87.83
2019-02-07T18:49:02.462Z,87.29
2019-02-07T18:52:18.032Z,86.81
2019-02-07T18:55:33.578Z,86.58
2019-02-07T18:58:49.439Z,86.71
2019-02-07T19:02:04.843Z,87.39
2019-02-07T19:05:20.979Z,87.24
2019-02-07T19:08:36.526Z,87.12
2019-02-07T19:11:51.985Z,87.09
2019-02-07T19:15:11.211Z,86.93
2019-02-07T19:18:26.780Z,86.97
2019-02-07T19:21:42.149Z,87.11
2019-02-07T19:24:57.702Z,87.09
2019-02-07T19:28:13.357Z,86.45
2019-02-07T19:31:28.602Z,86.85
2019-02-07T19:34:43.762Z,86.58
2019-02-07T19:37:59.412Z,86.15
2019-02-07T19:41:14.673Z,85.75
2019-02-07T19:44:30.053Z,85.66
2019-02-07T19:47:45.466Z,85.12
2019-02-07T19:51:00.623Z,85.59
2019-02-07T19:54:15.803Z,85.75
2019-02-07T19:57:31.710Z,85.64
2019-02-07T20:00:47.100Z,85.41
2019-02-07T20:04:03.298Z,85.47
2019-02-07T20:07:18.472Z,85.29
2019-02-07T20:10:33.866Z,85.19
2019-02-07T20:13:49.392Z,84.54
2019-02-07T20:17:04.257Z,84.44
2019-02-07T20:20:20.235Z,85.14
2019-02-07T20:23:35.483Z,85.34
2019-02-07T20:26:51.042Z,85.42
2019-02-07T20:30:10.580Z,84.69
2019-02-07T20:33:26.250Z,85.27
2019-02-07T20:36:41.595Z,85.58
2019-02-07T20:39:56.838Z,85.51
2019-02-07T20:43:12.206Z,85.45
2019-02-07T20:46:27.457Z,85.75
2019-02-07T20:49:42.855Z,85.21
2019-02-07T20:52:58.040Z,85.28
2019-02-07T20:56:13.416Z,85.07
2019-02-07T20:59:28.625Z,85.20
2019-02-07T21:02:44.428Z,84.53
2019-02-07T21:05:59.678Z,84.99
2019-02-07T21:09:15.243Z,84.92
2019-02-07T21:12:30.586Z,84.71
2019-02-07T21:15:46.180Z,84.74
2019-02-07T21:19:01.968Z,84.91
2019-02-07T21:22:17.467Z,83.76
2019-02-07T21:25:38.744Z,84.60
2019-02-07T21:28:54.410Z,84.31
2019-02-07T21:32:10.726Z,83.52
2019-02-07T21:35:25.810Z,83.83
2019-02-07T21:38:40.876Z,84.10
2019-02-07T21:41:56.035Z,84.96
2019-02-07T21:45:12.617Z,84.82
2019-02-07T21:48:28.067Z,84.90
2019-02-07T21:51:43.524Z,84.92
2019-02-07T21:54:59.078Z,84.82
2019-02-07T21:58:14.343Z,85.16
2019-02-07T22:01:29.786Z,85.47
2019-02-07T22:04:45.653Z,85.50
2019-02-07T22:08:01.106Z,85.10
2019-02-07T22:11:16.662Z,85.29
2019-02-07T22:14:32.124Z,85.46
2019-02-07T22:17:47.811Z,85.85
2019-02-07T22:21:03.336Z,85.98
2019-02-07T22:24:19.203Z,85.30
2019-02-07T22:27:34.321Z,86.06
2019-02-07T22:30:49.805Z,86.35
2019-02-07T22:34:04.851Z,86.01
2019-02-07T22:37:20.108Z,86.07
2019-02-07T22:40:35.577Z,86.17
2019-02-07T22:43:51.628Z,85.83
2019-02-07T22:47:07.302Z,85.85
2019-02-07T22:50:22.714Z,86.28
2019-02-07T22:53:37.886Z,86.48
2019-02-07T22:56:53.242Z,86.81
2019-02-07T23:00:52.190Z,86.30
2019-02-07T23:04:09.998Z,86.44
2019-02-07T23:07:25.214Z,86.44
2019-02-07T23:10:40.647Z,86.60
2019-02-07T23:13:56.252Z,86.60
2019-02-07T23:17:11.615Z,85.77
2019-02-07T23:20:27.093Z,86.22
2019-02-07T23:23:43.381Z,85.95
2019-02-07T23:26:58.798Z,86.38
2019-02-07T23:30:14.023Z,86.25
2019-02-07T23:33:29.699Z,85.71
2019-02-07T23:36:45.701Z,85.80
2019-02-07T23:40:01.168Z,86.23
2019-02-07T23:43:16.588Z,86.24
2019-02-07T23:46:31.840Z,86.14
2019-02-07T23:49:47.192Z,86.16
2019-02-07T23:53:02.673Z,85.81
2019-02-07T23:56:18.005Z,86.04
2019-02-07T23:59:33.555Z,85.65
